createdAt,value
2022-09-06T02:51:02.359Z,101269.10
2022-09-06T05:02:37.742Z,101254.48
2022-09-06T05:06:07.053Z,101251.34
2022-09-06T07:40:58.725Z,101235.28
2022-09-06T08:33:02.645Z,101217.85
2022-09-06T08:35:48.249Z,101215.23
2022-09-06T08:38:23.811Z,101213.30
2022-09-06T08:41:58.228Z,101213.39
2022-09-06T08:45:27.443Z,101208.70
2022-09-06T08:48:43.913Z,101211.40
2022-09-06T08:55:52.773Z,101213.02
2022-09-06T09:02:34.021Z,101200.84
2022-09-06T09:06:06.295Z,101200.54
2022-09-06T09:09:45.806Z,101194.63
2022-09-06T09:12:52.316Z,101190.27
2022-09-06T09:23:27.307Z,101185.44
2022-09-06T10:39:52.100Z,101126.59
2022-09-06T10:43:15.001Z,101117.48
2022-09-06T11:06:20.695Z,101095.23
2022-09-06T11:12:44.643Z,101093.36
2022-09-06T11:15:19.008Z,101084.46
2022-09-06T11:18:19.128Z,101085.84
2022-09-06T11:21:19.319Z,101083.83
2022-09-06T11:23:53.270Z,101081.56
2022-09-06T11:26:38.631Z,101081.09
2022-09-06T11:29:20.755Z,101080.27
2022-09-06T11:34:59.562Z,101075.88
2022-09-06T11:37:34.138Z,101071.31
2022-09-06T11:42:57.256Z,101066.67
2022-09-06T11:45:48.172Z,101064.05
2022-09-06T11:48:34.577Z,101060.92
2022-09-06T11:51:11.260Z,101056.55
2022-09-06T11:53:49.314Z,101052.95
2022-09-06T11:56:34.445Z,101047.17
2022-09-06T11:59:21.818Z,101046.46
2022-09-06T12:02:04.581Z,101042.82
2022-09-06T12:05:07.634Z,101039.58
2022-09-06T12:08:15.423Z,101033.34
2022-09-06T12:11:37.759Z,101025.23
2022-09-06T12:14:36.421Z,101024.63
2022-09-06T12:17:07.428Z,101028.55
2022-09-06T12:19:43.926Z,101032.67
2022-09-06T12:22:28.794Z,101026.49
2022-09-06T12:25:37.952Z,101021.49
2022-09-06T12:28:13.991Z,101017.94
2022-09-06T12:30:48.382Z,101017.89
2022-09-06T12:33:39.952Z,101012.02
2022-09-06T12:36:18.553Z,101012.52
2022-09-06T12:39:05.903Z,101013.00
2022-09-06T12:41:44.010Z,101007.34
2022-09-06T12:44:16.319Z,101008.45
2022-09-06T12:46:49.581Z,101005.75
2022-09-06T12:49:22.958Z,101002.55
2022-09-06T12:52:11.955Z,101002.48
2022-09-06T12:54:49.957Z,100998.72
2022-09-06T12:57:28.233Z,100998.66
2022-09-06T13:00:01.968Z,100995.38
2022-09-06T13:02:44.507Z,100994.00
2022-09-06T13:05:16.139Z,100993.69
2022-09-06T13:07:50.888Z,100995.61
2022-09-06T13:10:26.033Z,100990.36
2022-09-06T13:12:59.328Z,100988.73
2022-09-06T13:15:31.668Z,100985.06
2022-09-06T13:18:21.625Z,100979.92
2022-09-06T13:21:00.801Z,100983.53
2022-09-06T13:23:40.091Z,100978.31
2022-09-06T13:30:44.284Z,100977.13
2022-09-06T13:33:26.644Z,100978.42
2022-09-06T13:36:13.785Z,100980.04
2022-09-06T13:38:45.449Z,100978.13
2022-09-06T13:41:41.041Z,100976.55
2022-09-06T13:44:15.977Z,100974.64
2022-09-06T13:46:47.475Z,100972.25
2022-09-06T13:49:18.038Z,100964.54
2022-09-06T13:51:48.795Z,100967.38
2022-09-06T13:54:19.491Z,100968.20
2022-09-06T13:56:50.386Z,100969.81
2022-09-06T13:59:22.758Z,100970.98
2022-09-06T14:02:03.371Z,100967.20
2022-09-06T14:04:36.201Z,100961.63
2022-09-06T14:07:09.359Z,100960.45
2022-09-06T14:09:42.252Z,100958.09
2022-09-06T14:12:12.723Z,100954.17
2022-09-06T14:14:45.124Z,100953.80
2022-09-06T14:17:16.215Z,100956.88
2022-09-06T14:19:49.227Z,100958.43
2022-09-06T14:22:21.950Z,100953.95
2022-09-06T14:24:52.361Z,100952.73
2022-09-06T14:27:22.703Z,100949.20
2022-09-06T14:29:54.344Z,100949.56
2022-09-06T14:32:27.191Z,100942.08
2022-09-06T14:34:56.723Z,100943.41
2022-09-06T14:37:28.130Z,100934.60
2022-09-06T14:40:16.391Z,100928.89
2022-09-06T14:42:50.320Z,100933.08
2022-09-06T14:45:23.077Z,100929.46
2022-09-06T14:47:54.228Z,100928.40
2022-09-06T14:50:29.048Z,100924.05
2022-09-06T14:53:08.753Z,100923.72
2022-09-06T14:56:12.565Z,100923.46
2022-09-06T14:58:47.494Z,100920.65
2022-09-06T15:01:31.044Z,100920.40
2022-09-06T15:04:06.629Z,100912.66
2022-09-06T15:06:39.547Z,100907.25
2022-09-06T15:09:11.801Z,100902.91
2022-09-06T15:11:46.760Z,100899.02
2022-09-06T15:14:29.655Z,100895.75
2022-09-06T15:17:00.441Z,100897.68
2022-09-06T15:19:43.845Z,100901.41
2022-09-06T15:22:16.934Z,100893.95
2022-09-06T15:24:46.242Z,100894.47
2022-09-06T15:27:19.271Z,100890.54
2022-09-06T15:29:48.515Z,100892.98
2022-09-06T15:32:21.483Z,100892.97
2022-09-06T15:34:52.833Z,100887.45
2022-09-06T15:37:25.309Z,100886.30
2022-09-06T15:39:57.529Z,100879.05
2022-09-06T15:42:33.920Z,100880.61
2022-09-06T15:45:04.533Z,100870.86
2022-09-06T15:47:43.577Z,100870.98
2022-09-06T15:53:06.195Z,100866.56
2022-09-06T15:55:57.331Z,100867.46
2022-09-06T15:58:29.883Z,100864.05
2022-09-06T16:01:07.688Z,100866.49
2022-09-06T16:03:44.317Z,100868.77
2022-09-06T16:06:33.443Z,100867.91
2022-09-06T16:09:14.743Z,100863.56
2022-09-06T16:12:19.390Z,100866.59
2022-09-06T16:14:55.656Z,100872.73
2022-09-06T16:17:27.881Z,100870.02
2022-09-06T16:20:04.115Z,100867.09
2022-09-06T16:22:43.863Z,100869.83
2022-09-06T16:25:13.971Z,100863.71
2022-09-06T16:28:05.324Z,100861.98
2022-09-06T16:30:51.109Z,100858.48
2022-09-06T16:37:35.997Z,100857.56
2022-09-06T16:40:26.125Z,100860.13
2022-09-06T16:42:56.676Z,100858.96
2022-09-06T16:45:27.725Z,100856.98
2022-09-06T16:47:57.725Z,100851.98
2022-09-06T16:50:47.925Z,100851.18
2022-09-06T16:53:32.528Z,100847.82
2022-09-06T17:03:36.044Z,100846.98
2022-09-06T17:06:30.094Z,100844.59
2022-09-06T17:09:02.078Z,100850.02
2022-09-06T17:11:38.989Z,100852.13
2022-09-06T17:14:08.640Z,100851.78
2022-09-06T17:17:00.822Z,100855.36
2022-09-06T17:19:32.552Z,100858.33
2022-09-06T17:22:03.942Z,100856.38
2022-09-06T17:24:33.984Z,100854.38
2022-09-06T17:27:11.136Z,100856.55
2022-09-06T17:29:40.770Z,100854.21
2022-09-06T17:32:13.092Z,100856.55
2022-09-06T17:34:52.273Z,100857.84
2022-09-06T17:37:48.203Z,100865.55
2022-09-06T17:40:50.005Z,100869.05
2022-09-06T17:44:03.962Z,100874.92
2022-09-06T17:47:48.150Z,100875.16
2022-09-06T18:09:50.044Z,100879.38
2022-09-06T18:12:38.083Z,100881.39
2022-09-06T18:16:20.220Z,100881.56
2022-09-06T18:18:57.807Z,100875.19
2022-09-06T18:21:52.411Z,100882.27
2022-09-06T18:24:34.020Z,100883.94
2022-09-06T18:27:24.177Z,100886.10
2022-09-06T18:30:26.054Z,100886.45
2022-09-06T18:33:15.309Z,100880.65
2022-09-06T18:35:53.050Z,100880.93
2022-09-06T18:38:43.298Z,100888.25
2022-09-06T18:41:50.917Z,100891.14
2022-09-06T18:44:46.999Z,100889.08
2022-09-06T18:47:18.035Z,100895.35
2022-09-06T18:49:53.498Z,100897.33
2022-09-06T18:53:04.563Z,100895.75
2022-09-06T18:56:24.538Z,100889.23
2022-09-06T18:59:24.445Z,100890.71
2022-09-06T19:01:58.153Z,100888.11
2022-09-06T19:05:44.647Z,100891.71
2022-09-06T19:08:50.363Z,100883.14
2022-09-06T19:11:24.009Z,100891.51
2022-09-06T19:13:58.557Z,100889.42
2022-09-06T19:17:52.529Z,100892.12
2022-09-06T19:20:41.796Z,100892.90
2022-09-06T19:23:17.364Z,100885.13
2022-09-06T19:26:36.198Z,100886.20
2022-09-06T19:29:34.740Z,100888.55
2022-09-06T19:32:08.338Z,100889.56
2022-09-06T19:34:41.677Z,100883.02
2022-09-06T19:37:14.478Z,100881.70
2022-09-06T19:39:49.088Z,100878.41
2022-09-06T19:42:31.719Z,100879.33
2022-09-06T19:45:22.812Z,100876.91
2022-09-06T19:48:19.718Z,100874.45
2022-09-06T19:51:17.714Z,100875.30
2022-09-06T19:55:24.621Z,100874.86
2022-09-06T19:58:30.157Z,100874.85
2022-09-06T20:01:38.061Z,100866.19
2022-09-06T20:05:10.490Z,100864.37
2022-09-06T20:08:48.802Z,100860.33
2022-09-06T20:11:36.510Z,100868.67
2022-09-06T20:15:11.050Z,100864.89
2022-09-06T20:18:50.130Z,100870.27
2022-09-06T20:21:55.526Z,100863.79
2022-09-06T20:24:54.356Z,100862.61
2022-09-06T20:28:00.832Z,100859.62
2022-09-06T20:31:16.666Z,100861.37
2022-09-06T20:34:08.130Z,100858.46
2022-09-06T20:36:47.312Z,100859.67
2022-09-06T20:39:42.503Z,100857.84
2022-09-06T20:42:47.420Z,100859.14
2022-09-06T20:45:48.927Z,100855.80
2022-09-06T20:49:03.435Z,100857.29
2022-09-06T20:51:47.429Z,100858.26
2022-09-06T20:54:42.882Z,100855.80
2022-09-06T20:57:48.020Z,100853.79
2022-09-06T21:00:56.528Z,100854.91
2022-09-06T21:03:29.103Z,100852.56
2022-09-06T21:06:30.115Z,100852.25
2022-09-06T21:09:29.713Z,100851.08
2022-09-06T21:12:04.910Z,100847.34
2022-09-06T21:15:06.646Z,100846.85
2022-09-06T21:18:13.321Z,100849.95
2022-09-06T21:21:32.283Z,100851.14
2022-09-06T21:24:20.774Z,100854.26
2022-09-06T21:27:18.322Z,100851.83
2022-09-06T21:30:09.834Z,100853.11
2022-09-06T21:33:10.341Z,100854.99
2022-09-06T21:36:04.121Z,100854.60
2022-09-06T21:39:00.946Z,100855.86
2022-09-06T21:41:53.079Z,100854.44
2022-09-06T21:44:36.889Z,100850.02
2022-09-06T21:47:43.429Z,100849.52
2022-09-06T21:51:03.340Z,100852.75
2022-09-06T21:58:55.786Z,100852.16
2022-09-06T22:02:25.411Z,100851.36
2022-09-06T22:05:50.572Z,100849.16
2022-09-06T22:09:16.018Z,100845.46
2022-09-06T22:12:29.753Z,100848.60
2022-09-06T22:15:22.121Z,100847.33
2022-09-06T22:18:31.357Z,100847.27
2022-09-06T22:21:45.935Z,100845.66
2022-09-06T22:24:29.434Z,100846.55
2022-09-06T22:27:31.099Z,100841.92
2022-09-06T22:30:35.154Z,100842.38
2022-09-06T22:34:14.804Z,100842.73
2022-09-06T22:37:44.657Z,100843.55
2022-09-06T22:41:06.338Z,100843.39
2022-09-06T22:43:48.954Z,100838.95
2022-09-06T22:46:46.787Z,100839.92
2022-09-06T22:49:59.670Z,100841.94
2022-09-06T22:53:19.555Z,100837.49
2022-09-06T22:57:05.901Z,100832.72
2022-09-06T23:00:40.888Z,100832.06
2022-09-06T23:03:39.530Z,100831.18
2022-09-06T23:07:05.368Z,100829.20
2022-09-06T23:10:48.137Z,100825.17
2022-09-06T23:14:01.408Z,100825.85
2022-09-06T23:17:11.788Z,100824.98
2022-09-06T23:19:48.534Z,100819.27
2022-09-06T23:22:33.714Z,100819.71
2022-09-06T23:25:27.675Z,100819.85
2022-09-06T23:28:57.050Z,100818.67
2022-09-06T23:32:06.549Z,100814.35
2022-09-06T23:35:16.575Z,100812.56
2022-09-06T23:38:21.115Z,100810.15
2022-09-06T23:42:06.957Z,100813.60
2022-09-06T23:45:56.800Z,100815.92
2022-09-06T23:49:32.161Z,100812.59
2022-09-06T23:53:20.230Z,100813.33
